Time;durP1;ratioP1;P1;durP2;ratioP2;P2;SDS_P1;SDS_P2;PMS_P1;PMS_P2;Temp;Humidity;BMP_temperature;BMP_pressure;BME280_temperature;BME280_humidity;BME280_pressure;Samples;Min_cycle;Max_cycle;Signal;HPM_P1;HPM_P2
2023/08/19 00:00:42;;;;;;;13.45;4.47;;;;;;;20.75;58.39;93044.81;2074525;69;20578;-80
2023/08/19 00:03:08;;;;;;;10.30;4.72;;;;;;;20.42;59.12;93051.69;2074335;69;20154;-80
2023/08/19 00:05:33;;;;;;;10.15;4.45;;;;;;;20.33;58.80;93047.16;2074281;69;20230;-80
2023/08/19 00:08:03;;;;;;;14.27;4.40;;;;;;;20.49;58.64;93038.34;2074609;69;20160;-80
2023/08/19 00:10:29;;;;;;;13.98;4.50;;;;;;;20.51;59.49;93035.53;2074130;69;20674;-80
2023/08/19 00:12:54;;;;;;;9.40;4.55;;;;;;;20.50;58.74;93045.53;2074882;69;20163;-80
2023/08/19 00:15:21;;;;;;;15.73;4.88;;;;;;;20.40;59.26;93045.22;2074929;69;20155;-79
2023/08/19 00:17:47;;;;;;;11.50;4.50;;;;;;;20.22;60.51;93042.53;2074767;69;20186;-80
2023/08/19 00:20:13;;;;;;;10.43;4.38;;;;;;;20.29;60.93;93044.16;2074870;69;20139;-80
2023/08/19 00:22:38;;;;;;;12.05;4.43;;;;;;;20.25;59.64;93044.03;2074621;69;20155;-81
2023/08/19 00:25:04;;;;;;;7.63;4.50;;;;;;;20.44;56.64;93046.06;2074699;69;20148;-80
2023/08/19 00:27:30;;;;;;;11.10;4.40;;;;;;;20.21;58.82;93044.66;2071576;69;20590;-80
2023/08/19 00:29:56;;;;;;;13.77;4.65;;;;;;;20.27;57.69;93041.97;2071250;69;20160;-80
2023/08/19 00:32:21;;;;;;;10.13;4.68;;;;;;;20.33;57.06;93038.56;2071423;69;20199;-79
2023/08/19 00:34:47;;;;;;;12.85;4.10;;;;;;;20.30;57.83;93045.63;2075004;69;20209;-79
2023/08/19 00:37:13;;;;;;;11.52;4.30;;;;;;;20.33;58.34;93032.84;2071519;69;20149;-79
2023/08/19 00:39:39;;;;;;;15.80;4.20;;;;;;;20.35;59.53;93037.91;2068968;69;20153;-79
2023/08/19 00:42:06;;;;;;;10.25;4.50;;;;;;;20.13;59.34;93035.09;2071636;69;20153;-81
2023/08/19 00:44:34;;;;;;;9.50;4.75;;;;;;;19.84;58.76;93037.09;2071727;69;20179;-79
2023/08/19 00:47:04;;;;;;;9.88;4.35;;;;;;;20.04;58.31;93034.13;2068833;69;20143;-80
2023/08/19 00:49:39;;;;;;;13.93;4.60;;;;;;;20.02;57.14;93043.38;2068682;69;20160;-80
2023/08/19 00:52:05;;;;;;;15.52;5.28;;;;;;;20.08;60.02;93039.97;2074841;69;20761;-80
2023/08/19 00:54:31;;;;;;;12.70;4.72;;;;;;;20.13;57.60;93040.81;2071856;69;20133;-80
2023/08/19 00:56:57;;;;;;;10.10;4.72;;;;;;;20.24;58.33;93039.72;2071143;69;20637;-80
2023/08/19 00:59:24;;;;;;;11.98;4.55;;;;;;;20.03;60.57;93030.53;2071647;69;20146;-80
2023/08/19 01:01:50;;;;;;;8.82;4.57;;;;;;;20.04;60.16;93048.41;2074619;69;20211;-80
2023/08/19 01:04:16;;;;;;;13.27;4.47;;;;;;;19.91;60.63;93049.41;2074952;69;20163;-80
2023/08/19 01:06:51;;;;;;;9.45;4.60;;;;;;;19.90;58.09;93040.13;2071166;69;20148;-80
2023/08/19 01:09:43;;;;;;;9.13;4.70;;;;;;;20.08;57.60;93050.66;2074970;69;20156;-79
2023/08/19 01:12:35;;;;;;;10.00;5.10;;;;;;;20.14;56.30;93051.56;2074780;69;20693;-80
2023/08/19 01:15:19;;;;;;;17.25;4.85;;;;;;;20.06;58.02;93040.63;2074510;69;20261;-80
2023/08/19 01:17:50;;;;;;;14.30;4.63;;;;;;;20.05;59.00;93047.72;2071280;69;20260;-80
2023/08/19 01:20:16;;;;;;;12.90;4.82;;;;;;;19.92;57.85;93048.75;2068790;69;20243;-80
2023/08/19 01:22:55;;;;;;;9.32;4.55;;;;;;;19.88;58.25;93051.47;2074803;69;20216;-80
2023/08/19 01:25:23;;;;;;;15.43;4.93;;;;;;;19.72;58.66;93045.97;2074775;69;20308;-80
2023/08/19 01:27:49;;;;;;;13.20;4.70;;;;;;;19.79;58.36;93033.38;2071473;69;20144;-81
2023/08/19 01:30:15;;;;;;;13.40;4.80;;;;;;;19.89;57.92;93035.81;2068648;69;20143;-80
2023/08/19 01:32:43;;;;;;;6.68;4.13;;;;;;;19.87;57.29;93038.59;2071793;69;20152;-80
2023/08/19 01:35:11;;;;;;;15.85;5.10;;;;;;;19.73;58.79;93038.88;2074977;69;20213;-80
2023/08/19 01:37:47;;;;;;;8.07;4.75;;;;;;;19.68;57.52;93034.44;2071597;69;20152;-80
2023/08/19 01:40:14;;;;;;;7.82;4.55;;;;;;;19.67;57.69;93041.53;2074655;69;20144;-80
2023/08/19 01:42:41;;;;;;;11.52;4.32;;;;;;;19.80;56.58;93039.81;2074872;69;20234;-81
2023/08/19 01:45:08;;;;;;;7.70;4.40;;;;;;;19.72;57.53;93036.69;2071700;69;20170;-81
2023/08/19 01:47:39;;;;;;;10.60;4.38;;;;;;;19.83;58.45;93044.16;2074500;69;20163;-81
2023/08/19 01:50:07;;;;;;;10.13;4.72;;;;;;;19.80;57.31;93042.66;2071247;69;20700;-81
2023/08/19 01:52:36;;;;;;;14.95;4.63;;;;;;;19.49;59.47;93015.94;2068280;69;20648;-80
2023/08/19 01:55:02;;;;;;;10.27;4.35;;;;;;;19.78;58.54;93037.59;2071100;69;20148;-80
2023/08/19 01:57:28;;;;;;;12.93;4.60;;;;;;;19.53;59.27;93029.63;2071110;69;20635;-80
2023/08/19 01:59:54;;;;;;;13.45;4.38;;;;;;;19.59;59.15;93038.38;2071380;69;20148;-81
2023/08/19 02:02:21;;;;;;;7.95;4.30;;;;;;;19.61;58.88;93035.63;2074654;69;20143;-81
2023/08/19 02:04:48;;;;;;;11.15;5.30;;;;;;;19.27;59.68;93029.47;2074917;69;20640;-80
2023/08/19 02:07:14;;;;;;;11.77;4.60;;;;;;;19.53;59.06;93041.78;2071172;69;20156;-81
2023/08/19 02:09:40;;;;;;;7.85;4.35;;;;;;;19.45;59.80;93041.50;2075000;69;20159;-80
2023/08/19 02:12:06;;;;;;;12.55;4.75;;;;;;;19.48;59.42;93039.47;2074376;69;20495;-80
2023/08/19 02:14:33;;;;;;;9.93;4.47;;;;;;;19.39;59.49;93038.44;2071256;69;20128;-80
2023/08/19 02:17:00;;;;;;;10.35;4.43;;;;;;;19.39;61.48;93035.59;2070952;69;20210;-80
2023/08/19 02:19:26;;;;;;;8.90;4.63;;;;;;;19.23;60.95;93046.44;2074572;69;20246;-79
2023/08/19 02:21:55;;;;;;;14.38;5.00;;;;;;;19.01;61.07;93040.69;2074984;69;20220;-79
2023/08/19 02:24:21;;;;;;;10.65;4.80;;;;;;;19.10;60.92;93030.31;2071584;69;20132;-80
2023/08/19 02:26:46;;;;;;;12.73;5.05;;;;;;;19.16;60.47;93039.81;2074480;69;20198;-80
2023/08/19 02:29:12;;;;;;;10.07;4.68;;;;;;;19.18;59.74;93039.16;2071147;69;20152;-80
2023/08/19 02:31:38;;;;;;;12.82;4.78;;;;;;;19.15;60.63;93041.22;2074520;69;20501;-81
2023/08/19 02:34:04;;;;;;;8.95;4.78;;;;;;;19.14;60.71;93039.72;2068042;69;20624;-80
2023/08/19 02:36:33;;;;;;;10.93;4.72;;;;;;;19.03;60.96;93047.22;2070993;69;20170;-80
2023/08/19 02:39:00;;;;;;;9.82;4.90;;;;;;;19.00;62.43;93045.69;2074632;69;20147;-80
2023/08/19 02:41:26;;;;;;;10.05;4.60;;;;;;;19.09;61.47;93038.13;2068473;69;20175;-80
2023/08/19 02:43:51;;;;;;;9.90;4.55;;;;;;;19.06;61.50;93039.47;2071464;69;20307;-80
2023/08/19 02:46:18;;;;;;;9.50;4.45;;;;;;;19.06;61.04;93039.47;2071094;69;20243;-81
2023/08/19 02:48:43;;;;;;;9.93;5.03;;;;;;;18.94;60.60;93041.91;2075079;69;20135;-80
2023/08/19 02:51:10;;;;;;;11.73;4.80;;;;;;;18.66;61.97;93033.75;2068863;69;20147;-80
2023/08/19 02:53:36;;;;;;;9.80;5.03;;;;;;;18.65;62.49;93045.84;2071180;69;20156;-80
2023/08/19 02:56:05;;;;;;;13.50;4.70;;;;;;;18.75;62.12;93046.22;2074269;69;20651;-80
2023/08/19 02:58:30;;;;;;;10.73;4.93;;;;;;;18.76;62.00;93042.69;2071321;69;20239;-81
2023/08/19 03:00:56;;;;;;;10.27;4.80;;;;;;;18.66;62.73;93045.16;2074775;69;20708;-81
2023/08/19 03:03:22;;;;;;;8.88;4.50;;;;;;;18.79;61.79;93054.94;2074400;69;20148;-81
2023/08/19 03:05:47;;;;;;;6.50;4.15;;;;;;;18.75;62.07;93040.50;2071151;69;20152;-80
2023/08/19 03:08:13;;;;;;;9.27;4.65;;;;;;;18.77;62.57;93049.88;2074496;69;20332;-81
2023/08/19 03:10:40;;;;;;;11.90;5.03;;;;;;;18.66;62.21;93053.00;2071103;69;20633;-80
2023/08/19 03:13:07;;;;;;;12.13;5.07;;;;;;;18.53;62.68;93063.22;2074548;69;20140;-80
2023/08/19 03:15:35;;;;;;;10.13;4.78;;;;;;;18.32;63.74;93052.44;2071176;69;20163;-79
2023/08/19 03:18:01;;;;;;;9.25;4.90;;;;;;;18.46;61.38;93061.50;2070784;69;21100;-80
2023/08/19 03:20:27;;;;;;;8.85;4.43;;;;;;;18.65;59.85;93051.53;2070408;69;20168;-81
2023/08/19 03:22:53;;;;;;;7.78;4.50;;;;;;;18.70;59.58;93053.91;2074412;69;20514;-80
2023/08/19 03:25:22;;;;;;;12.50;4.50;;;;;;;18.77;60.79;93061.25;2071382;69;20152;-81
2023/08/19 03:27:49;;;;;;;8.80;4.88;;;;;;;18.68;62.17;93058.75;2068513;69;20221;-80
2023/08/19 03:30:15;;;;;;;12.70;4.60;;;;;;;18.66;60.76;93065.13;2074882;69;20150;-81
2023/08/19 03:32:41;;;;;;;8.93;4.72;;;;;;;18.53;62.32;93051.81;2071266;69;20152;-81
2023/08/19 03:35:07;;;;;;;12.15;5.28;;;;;;;18.57;61.53;93054.81;2070783;69;20167;-81
2023/08/19 03:37:33;;;;;;;10.82;4.60;;;;;;;18.45;62.00;93054.34;2074275;69;20206;-81
2023/08/19 03:40:00;;;;;;;9.75;4.53;;;;;;;18.58;61.14;93064.09;2070925;69;20518;-80
2023/08/19 03:42:25;;;;;;;13.52;5.10;;;;;;;18.56;60.89;93069.72;2070862;69;20136;-81
2023/08/19 03:44:52;;;;;;;11.57;4.90;;;;;;;18.58;60.50;93061.25;2074409;69;20278;-81
2023/08/19 03:47:18;;;;;;;8.57;4.65;;;;;;;18.57;61.14;93060.50;2074644;69;20180;-81
2023/08/19 03:49:43;;;;;;;11.70;4.88;;;;;;;18.50;60.37;93065.25;2071500;69;20158;-81
2023/08/19 03:52:09;;;;;;;8.73;4.45;;;;;;;18.54;60.95;93068.25;2071472;69;20148;-81
2023/08/19 03:54:35;;;;;;;8.30;4.13;;;;;;;18.60;61.34;93076.31;2071460;69;20247;-80
2023/08/19 03:57:01;;;;;;;11.15;4.38;;;;;;;18.63;60.62;93068.56;2071274;69;20252;-80
2023/08/19 03:59:27;;;;;;;9.55;5.28;;;;;;;18.60;60.77;93064.91;2068602;69;20217;-80
2023/08/19 04:01:54;;;;;;;11.07;5.20;;;;;;;18.60;61.26;93059.22;2071380;69;20155;-81
2023/08/19 04:04:20;;;;;;;8.20;4.25;;;;;;;18.60;61.40;93069.84;2074523;69;20506;-80
2023/08/19 04:06:46;;;;;;;9.07;4.90;;;;;;;18.52;61.30;93073.16;2071354;69;20158;-80
2023/08/19 04:09:12;;;;;;;14.68;4.95;;;;;;;18.59;60.77;93068.41;2074797;69;20599;-80
2023/08/19 04:11:38;;;;;;;12.68;4.65;;;;;;;18.33;60.53;93079.56;2068375;69;20219;-80
2023/08/19 04:14:05;;;;;;;9.05;4.35;;;;;;;18.48;60.47;93073.72;2071419;69;20148;-83
2023/08/19 04:16:31;;;;;;;10.98;4.30;;;;;;;18.57;60.21;93079.75;2074853;69;20167;-80
2023/08/19 04:18:57;;;;;;;10.55;4.82;;;;;;;18.40;61.37;93081.97;2074855;69;20657;-82
2023/08/19 04:21:24;;;;;;;10.68;4.18;;;;;;;18.39;61.00;93082.63;2071486;69;20147;-80
2023/08/19 04:23:50;;;;;;;15.13;4.75;;;;;;;18.18;61.99;93095.38;2071415;69;20310;-81
2023/08/19 04:26:16;;;;;;;10.75;5.20;;;;;;;18.29;61.26;93094.38;2071396;69;20175;-81
2023/08/19 04:28:44;;;;;;;12.25;4.70;;;;;;;18.21;61.57;93097.66;2071470;69;20148;-81
2023/08/19 04:31:12;;;;;;;9.65;5.07;;;;;;;18.26;61.64;93090.72;2071429;69;20159;-84
2023/08/19 04:33:45;;;;;;;11.35;4.80;;;;;;;18.35;61.37;93093.88;2068927;69;20148;-85
2023/08/19 04:36:10;;;;;;;10.60;4.55;;;;;;;18.29;61.24;93102.94;2068779;69;20241;-84
2023/08/19 04:38:36;;;;;;;10.38;4.75;;;;;;;18.32;62.10;93104.47;2074980;69;20152;-81
2023/08/19 04:41:04;;;;;;;9.88;4.60;;;;;;;18.34;61.71;93098.84;2071445;69;20175;-82
2023/08/19 04:43:37;;;;;;;6.55;4.80;;;;;;;18.31;62.31;93105.84;2071857;69;20139;-85
2023/08/19 04:46:03;;;;;;;11.18;5.03;;;;;;;18.11;62.58;93102.94;2068835;69;20159;-86
2023/08/19 04:48:28;;;;;;;12.82;4.97;;;;;;;18.18;61.95;93103.91;2075117;69;20574;-87
2023/08/19 04:50:54;;;;;;;10.88;5.40;;;;;;;18.10;61.90;93123.53;2075008;69;20151;-87
2023/08/19 04:53:20;;;;;;;12.00;5.65;;;;;;;18.11;62.18;93122.91;2071578;69;20228;-85
2023/08/19 04:55:46;;;;;;;13.27;5.65;;;;;;;18.10;63.37;93120.69;2071406;69;20155;-83
2023/08/19 04:58:12;;;;;;;14.10;5.57;;;;;;;17.88;63.28;93124.13;2071488;69;20148;-83
2023/08/19 05:00:38;;;;;;;17.55;5.57;;;;;;;18.08;63.19;93134.84;2074733;69;20147;-81
2023/08/19 05:03:04;;;;;;;11.13;5.93;;;;;;;18.13;62.31;93119.38;2071467;69;20598;-83
2023/08/19 05:05:31;;;;;;;10.48;5.38;;;;;;;18.09;62.66;93134.19;2071458;69;20537;-83
2023/08/19 05:07:56;;;;;;;11.35;5.38;;;;;;;18.16;62.71;93140.88;2074991;69;20158;-83
2023/08/19 05:10:22;;;;;;;10.27;5.15;;;;;;;18.15;62.78;93142.28;2071852;69;20740;-88
2023/08/19 05:12:48;;;;;;;12.63;4.93;;;;;;;18.10;63.72;93132.84;2071974;69;20240;-89
2023/08/19 05:15:13;;;;;;;7.75;4.90;;;;;;;18.19;62.43;93122.47;2071663;69;20148;-82
2023/08/19 05:17:39;;;;;;;10.70;5.32;;;;;;;17.90;62.91;93129.16;2071661;69;20167;-84
2023/08/19 05:20:06;;;;;;;9.70;4.80;;;;;;;18.10;62.61;93141.38;2071425;69;20594;-84
2023/08/19 05:22:32;;;;;;;10.50;5.38;;;;;;;18.04;62.39;93133.31;2075025;69;20590;-84
2023/08/19 05:24:57;;;;;;;12.98;4.95;;;;;;;18.06;62.77;93137.63;2071779;69;20193;-83
2023/08/19 05:27:23;;;;;;;15.55;5.55;;;;;;;17.81;63.64;93136.63;2071720;69;20190;-84
2023/08/19 05:29:50;;;;;;;12.80;5.25;;;;;;;18.11;62.94;93136.41;2071953;69;20139;-84
2023/08/19 05:32:15;;;;;;;8.13;5.30;;;;;;;18.11;63.08;93140.00;2071707;69;20172;-85
2023/08/19 05:34:41;;;;;;;12.27;5.07;;;;;;;18.18;63.23;93143.81;2075153;69;20211;-84
2023/08/19 05:37:07;;;;;;;16.48;5.18;;;;;;;17.30;64.95;93147.97;2075292;69;20323;-84
2023/08/19 05:39:34;;;;;;;11.70;5.20;;;;;;;17.69;64.07;93147.50;2075253;69;20147;-84
2023/08/19 05:41:59;;;;;;;8.27;4.38;;;;;;;18.02;62.46;93152.44;2075137;69;20136;-85
2023/08/19 05:44:27;;;;;;;12.38;4.72;;;;;;;17.99;61.09;93150.88;2074936;69;20147;-83
2023/08/19 05:46:52;;;;;;;9.20;4.47;;;;;;;18.13;61.51;93154.31;2069105;69;20144;-88
2023/08/19 05:49:18;;;;;;;13.98;5.22;;;;;;;18.23;60.68;93151.13;2075240;69;20651;-84
2023/08/19 05:51:43;;;;;;;10.77;5.05;;;;;;;18.35;60.16;93150.88;2075163;69;20151;-85
2023/08/19 05:54:09;;;;;;;8.23;4.60;;;;;;;18.26;60.49;93149.81;2075291;69;20175;-84
2023/08/19 05:56:34;;;;;;;11.65;4.30;;;;;;;18.25;61.18;93154.78;2075225;69;20259;-85
2023/08/19 05:59:01;;;;;;;11.20;4.97;;;;;;;18.12;62.43;93146.41;2071769;69;20490;-85
2023/08/19 06:01:27;;;;;;;12.02;5.07;;;;;;;18.26;62.02;93161.94;2075216;69;20159;-85
2023/08/19 06:03:53;;;;;;;12.98;5.00;;;;;;;18.31;61.00;93162.84;2075310;69;20151;-81
2023/08/19 06:06:18;;;;;;;7.85;4.60;;;;;;;18.43;60.94;93157.63;2075311;69;20132;-82
2023/08/19 06:08:44;;;;;;;11.10;5.40;;;;;;;18.33;61.73;93156.50;2075171;69;20151;-82
2023/08/19 06:11:10;;;;;;;8.85;4.95;;;;;;;18.25;61.80;93159.75;2075065;69;20601;-80
2023/08/19 06:13:37;;;;;;;8.52;4.55;;;;;;;18.49;61.84;93157.84;2075115;69;20136;-81
2023/08/19 06:16:04;;;;;;;10.27;4.63;;;;;;;18.41;61.77;93159.66;2075143;69;20144;-84
2023/08/19 06:18:30;;;;;;;12.90;4.20;;;;;;;18.45;59.93;93152.00;2075090;69;20144;-83
2023/08/19 06:20:56;;;;;;;9.55;4.93;;;;;;;18.43;61.88;93165.44;2071826;69;20143;-81
2023/08/19 06:23:23;;;;;;;12.10;4.65;;;;;;;18.58;61.40;93169.59;2075140;69;20537;-83
2023/08/19 06:25:50;;;;;;;6.32;4.07;;;;;;;18.53;61.82;93166.56;2075083;69;20128;-86
2023/08/19 06:28:18;;;;;;;8.95;4.40;;;;;;;18.37;62.46;93159.50;2075071;69;20155;-85
2023/08/19 06:30:45;;;;;;;9.10;4.28;;;;;;;18.44;61.80;93164.78;2075200;69;20150;-83
2023/08/19 06:33:16;;;;;;;13.65;4.30;;;;;;;18.50;60.35;93167.16;2071623;69;20154;-82
2023/08/19 06:35:48;;;;;;;12.00;4.10;;;;;;;18.74;59.90;93164.53;2075026;69;20136;-84
2023/08/19 06:38:23;;;;;;;10.43;4.90;;;;;;;18.89;59.42;93163.69;2074953;69;20148;-82
2023/08/19 06:41:02;;;;;;;12.13;4.60;;;;;;;19.13;60.34;93154.53;2074778;69;20605;-84
2023/08/19 06:43:31;;;;;;;9.65;4.22;;;;;;;19.18;60.75;93153.31;2075417;69;20151;-83
2023/08/19 06:46:01;;;;;;;7.35;4.63;;;;;;;19.22;61.20;93157.03;2071921;69;20176;-84
2023/08/19 06:48:28;;;;;;;7.88;4.40;;;;;;;19.05;59.67;93157.81;2068926;69;20258;-81
2023/08/19 06:50:54;;;;;;;8.30;4.90;;;;;;;19.31;58.65;93149.50;2075101;69;20580;-83
2023/08/19 06:53:21;;;;;;;7.90;4.57;;;;;;;19.54;59.18;93153.88;2075081;69;20204;-82
2023/08/19 06:56:25;;;;;;;9.55;4.70;;;;;;;19.87;59.96;93157.84;2075072;69;20242;-82
2023/08/19 06:59:14;;;;;;;7.55;4.43;;;;;;;20.13;58.59;93158.72;2071590;69;20220;-83
2023/08/19 07:01:44;;;;;;;11.10;4.80;;;;;;;20.27;58.62;93147.03;2075130;69;20264;-82
2023/08/19 07:04:12;;;;;;;7.18;4.10;;;;;;;20.43;56.19;93147.50;2075078;69;20140;-83
2023/08/19 07:06:41;;;;;;;8.50;4.20;;;;;;;20.87;56.86;93152.44;2075246;69;20148;-83
2023/08/19 07:09:08;;;;;;;9.30;4.35;;;;;;;21.21;53.60;93150.59;2071711;69;20172;-83
2023/08/19 07:11:34;;;;;;;9.13;3.97;;;;;;;21.39;53.80;93147.53;2074886;69;20150;-83
2023/08/19 07:14:03;;;;;;;5.20;3.88;;;;;;;21.74;54.18;93157.78;2071712;69;20205;-84
2023/08/19 07:16:33;;;;;;;8.15;4.25;;;;;;;21.94;55.28;93151.84;2075041;69;20238;-85
2023/08/19 07:19:03;;;;;;;8.45;3.70;;;;;;;22.18;54.14;93153.91;2075086;69;20274;-84
2023/08/19 07:21:31;;;;;;;7.20;3.92;;;;;;;22.27;53.20;93153.44;2074889;69;20140;-84
2023/08/19 07:24:01;;;;;;;11.98;4.07;;;;;;;22.77;53.97;93152.41;2075053;69;20139;-81
2023/08/19 07:26:26;;;;;;;8.77;4.20;;;;;;;22.83;51.33;93150.44;2074828;69;20212;-82
2023/08/19 07:28:53;;;;;;;7.93;4.05;;;;;;;23.16;52.11;93151.16;2074901;69;20174;-85
2023/08/19 07:31:23;;;;;;;6.20;3.72;;;;;;;23.61;52.52;93152.06;2075073;69;20136;-85
2023/08/19 07:33:54;;;;;;;5.60;3.70;;;;;;;23.77;52.27;93155.25;2075229;69;20602;-83
2023/08/19 07:36:22;;;;;;;8.43;3.97;;;;;;;23.94;51.75;93149.81;2075647;69;20160;-82
2023/08/19 07:38:48;;;;;;;7.50;3.78;;;;;;;24.17;48.64;93150.94;2075042;69;20202;-84
2023/08/19 07:41:14;;;;;;;9.88;4.13;;;;;;;24.69;47.69;93150.34;2073094;69;20143;-80
2023/08/19 07:43:40;;;;;;;5.90;3.60;;;;;;;24.52;48.08;93149.41;2077223;69;20190;-83
2023/08/19 07:46:05;;;;;;;7.00;3.80;;;;;;;24.68;47.67;93143.88;2077653;69;20148;-83
2023/08/19 07:48:31;;;;;;;7.05;3.85;;;;;;;25.21;48.04;93143.94;2076186;69;20140;-81
2023/08/19 07:50:58;;;;;;;7.00;3.65;;;;;;;25.17;47.84;93146.75;2078327;69;20136;-80
2023/08/19 07:53:24;;;;;;;6.13;3.58;;;;;;;25.39;47.81;93141.28;2076295;69;20136;-83
2023/08/19 07:55:52;;;;;;;6.60;3.28;;;;;;;25.68;45.83;93145.22;2078348;69;20140;-80
2023/08/19 07:58:19;;;;;;;4.38;3.58;;;;;;;25.82;46.63;93154.06;2075490;69;20160;-88
2023/08/19 08:00:45;;;;;;;7.22;3.45;;;;;;;26.13;46.98;93154.38;2071696;69;20194;-89
2023/08/19 08:03:10;;;;;;;7.97;3.90;;;;;;;26.29;46.48;93159.56;2075241;69;20133;-88
2023/08/19 08:05:37;;;;;;;5.60;3.53;;;;;;;26.48;44.55;93157.59;2068113;69;20148;-87
2023/08/19 08:08:06;;;;;;;5.68;3.42;;;;;;;27.20;40.40;93155.97;2068182;69;20129;-84
2023/08/19 08:10:33;;;;;;;8.43;3.50;;;;;;;27.20;40.51;93147.31;2068079;69;20133;-86
2023/08/19 08:12:59;;;;;;;7.00;3.20;;;;;;;27.43;39.76;93145.97;2068285;69;20695;-87
2023/08/19 08:15:26;;;;;;;6.60;3.47;;;;;;;27.40;40.07;93143.78;2067712;69;20140;-85
2023/08/19 08:17:54;;;;;;;6.75;3.30;;;;;;;27.80;41.99;93138.19;2068309;69;20544;-85
2023/08/19 08:20:20;;;;;;;6.55;3.38;;;;;;;27.99;39.71;93141.84;2068191;69;20149;-83
2023/08/19 08:22:46;;;;;;;7.10;3.50;;;;;;;27.80;34.86;93140.34;2068163;69;20214;-86
2023/08/19 08:25:12;;;;;;;6.10;3.55;;;;;;;28.17;36.06;93138.28;2068189;69;20148;-89
2023/08/19 08:27:38;;;;;;;6.05;3.08;;;;;;;28.40;35.65;93141.22;2068267;69;20172;-86
2023/08/19 08:30:05;;;;;;;6.32;3.15;;;;;;;28.64;35.19;93144.16;2068072;69;20207;-89
2023/08/19 08:32:31;;;;;;;4.97;3.50;;;;;;;28.94;35.97;93140.50;2068432;69;20516;-88
2023/08/19 08:34:59;;;;;;;6.38;3.20;;;;;;;28.88;34.18;93135.44;2068733;69;20140;-90
2023/08/19 08:37:24;;;;;;;5.47;3.40;;;;;;;29.30;37.19;93142.63;2068731;69;20144;-89
2023/08/19 08:39:50;;;;;;;8.40;3.42;;;;;;;29.70;37.87;93131.66;2068669;69;20525;-87
2023/08/19 08:42:17;;;;;;;6.72;3.20;;;;;;;29.79;35.64;93125.09;2068564;69;20622;-89
2023/08/19 08:44:50;;;;;;;7.55;3.45;;;;;;;28.67;34.54;93133.28;2068116;69;20211;-84
2023/08/19 08:47:16;;;;;;;7.15;3.47;;;;;;;29.23;34.36;93128.88;2068605;69;20218;-85
2023/08/19 08:49:46;;;;;;;7.93;3.53;;;;;;;29.43;32.65;93125.91;2068646;69;20198;-85
2023/08/19 08:52:12;;;;;;;5.55;3.58;;;;;;;29.73;34.82;93112.78;2068724;69;20602;-85
2023/08/19 08:54:39;;;;;;;6.85;3.50;;;;;;;29.99;32.63;93120.63;2068668;69;20708;-88
2023/08/19 08:57:06;;;;;;;6.70;3.35;;;;;;;29.99;33.93;93118.44;2068672;69;20156;-84
2023/08/19 08:59:32;;;;;;;5.85;3.58;;;;;;;30.34;33.52;93118.25;2068697;69;20626;-85
2023/08/19 09:01:58;;;;;;;5.47;3.22;;;;;;;30.34;32.24;93118.25;2068651;69;20164;-82
2023/08/19 09:04:28;;;;;;;5.82;3.13;;;;;;;30.70;33.23;93116.50;2072036;69;20160;-85
2023/08/19 09:07:04;;;;;;;7.90;3.88;;;;;;;30.73;31.74;93127.41;2076223;69;20128;-84
2023/08/19 09:09:34;;;;;;;13.32;3.50;;;;;;;31.30;31.27;93109.47;2076157;69;20143;-86
2023/08/19 09:12:00;;;;;;;5.70;3.33;;;;;;;31.91;32.04;93116.03;2071901;69;20179;-84
2023/08/19 09:14:38;;;;;;;5.25;3.70;;;;;;;31.26;30.78;93114.56;2075360;69;20155;-87
2023/08/19 09:17:06;;;;;;;6.30;3.75;;;;;;;32.11;31.21;93109.94;2075510;69;20155;-88
2023/08/19 09:19:32;;;;;;;9.27;3.75;;;;;;;32.16;30.95;93107.69;2075393;69;20168;-88
2023/08/19 09:21:57;;;;;;;5.05;3.40;;;;;;;33.31;28.85;93116.81;2075365;69;20158;-84
2023/08/19 09:24:23;;;;;;;6.18;3.40;;;;;;;33.03;28.80;93115.09;2075406;69;20505;-86
2023/08/19 09:26:55;;;;;;;5.05;3.55;;;;;;;31.72;30.61;93103.88;2072004;69;20148;-85
2023/08/19 09:29:23;;;;;;;8.25;3.60;;;;;;;33.04;29.70;93110.00;2075463;69;20151;-84
2023/08/19 09:31:53;;;;;;;11.10;3.63;;;;;;;33.66;30.13;93110.31;2075357;69;20152;-89
2023/08/19 09:34:20;;;;;;;5.47;3.05;;;;;;;33.41;28.09;93109.34;2075361;69;20183;-89
2023/08/19 09:36:46;;;;;;;6.45;3.65;;;;;;;32.81;28.95;93106.72;2075354;69;20285;-85
2023/08/19 09:39:12;;;;;;;7.32;3.03;;;;;;;33.94;29.25;93108.28;2075425;69;20164;-85
2023/08/19 09:41:38;;;;;;;6.82;3.50;;;;;;;33.94;28.92;93100.25;2075241;69;20167;-84
2023/08/19 09:44:12;;;;;;;6.15;3.35;;;;;;;33.60;28.78;93102.41;2075262;69;20136;-85
2023/08/19 09:46:38;;;;;;;7.32;3.00;;;;;;;33.60;27.12;93102.41;2075432;69;20168;-81
2023/08/19 09:49:03;;;;;;;8.20;3.08;;;;;;;34.30;29.08;93100.94;2074710;69;20171;-81
2023/08/19 09:51:29;;;;;;;6.00;2.95;;;;;;;34.79;28.25;93091.78;2075498;69;20628;-87
2023/08/19 09:53:55;;;;;;;9.35;3.40;;;;;;;35.04;26.16;93091.19;2075476;69;20148;-91
2023/08/19 09:56:26;;;;;;;6.22;3.10;;;;;;;34.61;27.89;93090.00;2075313;69;20184;-86
2023/08/19 09:58:54;;;;;;;4.82;3.17;;;;;;;35.37;26.45;93091.03;2075294;69;20605;-83
2023/08/19 10:01:22;;;;;;;5.30;3.30;;;;;;;35.62;28.01;93094.75;2075387;69;20136;-84
2023/08/19 10:03:51;;;;;;;7.28;3.38;;;;;;;36.04;26.93;93094.34;2075150;69;20136;-85
2023/08/19 10:06:23;;;;;;;5.05;3.30;;;;;;;34.96;24.99;93092.13;2075255;69;20618;-82
2023/08/19 10:08:53;;;;;;;5.10;3.10;;;;;;;36.76;27.02;93096.53;2075353;69;20206;-91
2023/08/19 10:11:21;;;;;;;7.75;2.85;;;;;;;36.62;24.85;93091.84;2075196;69;20175;-84
2023/08/19 10:13:46;;;;;;;6.65;3.08;;;;;;;36.71;23.90;93091.59;2075457;69;20132;-88
2023/08/19 10:16:14;;;;;;;5.15;2.90;;;;;;;37.61;23.71;93092.94;2075468;69;20182;-88
2023/08/19 10:18:44;;;;;;;4.65;2.90;;;;;;;37.88;23.32;93077.31;2075506;69;20160;-84
2023/08/19 10:21:14;;;;;;;6.05;3.08;;;;;;;37.31;22.87;93085.19;2072899;69;20167;-86
2023/08/19 10:23:43;;;;;;;6.82;3.00;;;;;;;36.36;24.97;93083.84;2075305;69;20223;-87
2023/08/19 10:26:10;;;;;;;8.63;3.22;;;;;;;37.01;22.52;93084.72;2075199;69;20146;-86
2023/08/19 10:28:36;;;;;;;4.68;2.70;;;;;;;38.35;23.12;93087.31;2075690;69;20594;-82
2023/08/19 10:31:12;;;;;;;5.28;3.10;;;;;;;38.43;23.17;93083.34;2075582;69;20169;-86
2023/08/19 10:33:44;;;;;;;5.88;2.92;;;;;;;37.23;22.93;93086.19;2075154;69;20533;-86
2023/08/19 10:36:18;;;;;;;3.92;2.97;;;;;;;39.61;21.25;93085.13;2071813;69;20136;-87
2023/08/19 10:39:00;;;;;;;4.40;3.05;;;;;;;40.87;20.35;93081.59;2071652;69;20151;-88
2023/08/19 10:41:37;;;;;;;7.38;3.20;;;;;;;39.73;21.65;93078.00;2071965;69;20148;-84
2023/08/19 10:44:04;;;;;;;5.53;2.80;;;;;;;41.35;21.29;93082.94;2075321;69;20216;-86
2023/08/19 10:46:37;;;;;;;5.65;2.90;;;;;;;41.53;20.21;93079.09;2075107;69;20176;-84
2023/08/19 10:49:11;;;;;;;5.47;3.10;;;;;;;41.39;19.68;93074.63;2075573;69;20148;-83
2023/08/19 10:52:05;;;;;;;6.78;3.10;;;;;;;42.63;18.62;93078.47;2077161;69;20216;-82
2023/08/19 10:54:41;;;;;;;5.60;2.80;;;;;;;44.57;18.83;93076.56;2078492;69;20123;-86
2023/08/19 10:57:09;;;;;;;6.50;3.10;;;;;;;42.34;19.47;93067.47;2078336;69;20152;-85
2023/08/19 10:59:36;;;;;;;3.53;2.83;;;;;;;42.93;18.27;93081.22;2078542;69;20159;-83
2023/08/19 11:02:02;;;;;;;5.00;2.95;;;;;;;43.96;18.45;93076.69;2078525;69;20143;-83
2023/08/19 11:04:28;;;;;;;8.88;2.88;;;;;;;46.65;16.53;93073.81;2078446;69;20188;-82
2023/08/19 11:06:55;;;;;;;6.07;2.67;;;;;;;46.55;17.53;93075.22;2078438;69;20517;-85
2023/08/19 11:09:26;;;;;;;7.25;3.10;;;;;;;45.54;17.48;93068.09;2078566;69;20583;-83
2023/08/19 11:11:54;;;;;;;5.15;2.70;;;;;;;46.85;15.68;93084.22;2078363;69;20202;-84
2023/08/19 11:14:22;;;;;;;5.38;2.70;;;;;;;49.08;15.60;93079.16;2078450;69;20155;-85
2023/08/19 11:16:52;;;;;;;6.85;3.10;;;;;;;48.53;14.75;93074.63;2078409;69;20213;-83
2023/08/19 11:19:19;;;;;;;5.85;2.70;;;;;;;47.21;15.83;93068.22;2078438;69;20266;-84
2023/08/19 11:21:45;;;;;;;5.63;2.88;;;;;;;46.65;16.42;93067.13;2078437;69;20154;-85
2023/08/19 11:24:11;;;;;;;3.67;2.60;;;;;;;48.13;15.05;93060.59;2078568;69;20154;-93
2023/08/19 11:26:50;;;;;;;7.50;2.53;;;;;;;50.14;14.01;93073.28;2072070;69;20529;-84
2023/08/19 11:29:17;;;;;;;5.82;2.60;;;;;;;48.21;15.57;93066.63;2078427;69;20151;-82
2023/08/19 11:31:43;;;;;;;5.07;2.45;;;;;;;50.80;13.99;93066.03;2078481;69;20147;-84